Time;durP1;ratioP1;P1;durP2;ratioP2;P2;SDS_P1;SDS_P2;PMS_P1;PMS_P2;Temp;Humidity;BMP_temperature;BMP_pressure;BME280_temperature;BME280_humidity;BME280_pressure;Samples;Min_cycle;Max_cycle;Signal;HPM_P1;HPM_P2
2024/01/30 00:02:02;;;;;;;;;;;;;;;18.07;42.85;100832.66;10330238;28;1955;-70
2024/01/30 00:06:58;;;;;;;;;;;;;;;18.06;42.55;100836.22;10330614;28;838;-69
2024/01/30 00:11:54;;;;;;;;;;;;;;;18.05;42.82;100830.06;10330440;28;849;-69
2024/01/30 00:16:49;;;;;;;;;;;;;;;18.03;42.57;100826.59;10329459;28;958;-69
2024/01/30 00:21:45;;;;;;;;;;;;;;;18.03;42.71;100829.25;10328651;28;1965;-69
2024/01/30 00:26:41;;;;;;;;;;;;;;;18.01;42.68;100831.06;10329288;28;1434;-70
2024/01/30 00:31:37;;;;;;;;;;;;;;;18.00;42.75;100824.06;10329580;28;901;-70
2024/01/30 00:36:34;;;;;;;;;;;;;;;18.00;42.75;100833.72;10328160;28;1164;-70
2024/01/30 00:41:29;;;;;;;;;;;;;;;18.00;42.75;100829.34;10328389;28;1907;-69
2024/01/30 00:46:25;;;;;;;;;;;;;;;17.98;42.71;100825.88;10328899;28;868;-69
2024/01/30 00:51:21;;;;;;;;;;;;;;;17.97;42.80;100821.47;10328146;28;762;-70
2024/01/30 00:56:18;;;;;;;;;;;;;;;17.96;42.62;100817.13;10327288;28;943;-70
2024/01/30 01:01:14;;;;;;;;;;;;;;;17.95;42.70;100810.13;10328220;28;1955;-70
2024/01/30 01:06:10;;;;;;;;;;;;;;;17.94;42.74;100808.38;10328071;28;846;-70
2024/01/30 01:11:06;;;;;;;;;;;;;;;17.94;42.69;100809.22;10327259;28;881;-70
2024/01/30 01:16:02;;;;;;;;;;;;;;;17.94;42.54;100808.38;10327702;28;826;-69
2024/01/30 01:20:58;;;;;;;;;;;;;;;17.92;42.79;100804.91;10326850;28;1971;-70
2024/01/30 01:25:55;;;;;;;;;;;;;;;17.91;42.69;100804.03;10327095;28;1081;-70
2024/01/30 01:30:51;;;;;;;;;;;;;;;17.91;42.63;100804.03;10327171;28;893;-70
2024/01/30 01:35:47;;;;;;;;;;;;;;;17.91;42.76;100808.47;10326560;28;810;-69
2024/01/30 01:40:43;;;;;;;;;;;;;;;17.90;42.67;100807.59;10326698;28;1902;-70
2024/01/30 01:45:39;;;;;;;;;;;;;;;17.88;42.71;100804.13;10326612;28;786;-70
2024/01/30 01:50:35;;;;;;;;;;;;;;;17.88;42.76;100798.00;10326573;28;819;-70
2024/01/30 01:55:32;;;;;;;;;;;;;;;17.87;42.68;100807.69;10325948;28;933;-69
2024/01/30 02:00:28;;;;;;;;;;;;;;;17.88;42.82;100800.63;10326197;28;1886;-69
2024/01/30 02:05:24;;;;;;;;;;;;;;;17.86;42.62;100795.38;10326503;28;968;-70
2024/01/30 02:10:20;;;;;;;;;;;;;;;17.85;42.66;100798.09;10326068;28;858;-70
2024/01/30 02:15:16;;;;;;;;;;;;;;;17.85;42.61;100798.09;10325365;28;794;-69
2024/01/30 02:20:13;;;;;;;;;;;;;;;17.84;42.68;100788.44;10325871;28;1951;-70
2024/01/30 02:25:09;;;;;;;;;;;;;;;17.84;42.67;100785.78;10324991;28;1290;-69
2024/01/30 02:30:05;;;;;;;;;;;;;;;17.83;42.67;100789.34;10326196;28;911;-69
2024/01/30 02:35:01;;;;;;;;;;;;;;;17.82;42.61;100783.22;10325668;28;786;-69
2024/01/30 02:39:56;;;;;;;;;;;;;;;17.81;42.86;100768.28;10324922;28;1969;-70
2024/01/30 02:44:52;;;;;;;;;;;;;;;17.81;42.79;100776.19;10326351;28;815;-70
2024/01/30 02:49:48;;;;;;;;;;;;;;;17.81;42.65;100781.47;10333489;28;799;-70
2024/01/30 02:54:44;;;;;;;;;;;;;;;17.81;42.80;100767.41;10333905;28;984;-70
2024/01/30 02:59:40;;;;;;;;;;;;;;;17.80;42.59;100758.66;10332388;28;1941;-70
2024/01/30 03:04:36;;;;;;;;;;;;;;;17.79;42.83;100759.56;10331727;28;838;-69
2024/01/30 03:09:32;;;;;;;;;;;;;;;17.79;42.66;100754.28;10332046;28;826;-70
2024/01/30 03:14:28;;;;;;;;;;;;;;;17.80;42.87;100744.59;10333074;28;862;-70
2024/01/30 03:19:23;;;;;;;;;;;;;;;17.79;42.75;100742.81;10331621;28;1886;-70
2024/01/30 03:24:19;;;;;;;;;;;;;;;17.78;42.69;100739.31;10331393;28;941;-70
2024/01/30 03:29:15;;;;;;;;;;;;;;;17.78;42.75;100733.19;10332145;28;1164;-69
2024/01/30 03:34:11;;;;;;;;;;;;;;;17.78;42.65;100723.50;10331708;28;903;-69
2024/01/30 03:39:07;;;;;;;;;;;;;;;17.78;42.73;100720.88;10330977;28;1910;-70
2024/01/30 03:44:03;;;;;;;;;;;;;;;17.78;42.81;100722.63;10330206;28;1072;-70
2024/01/30 03:48:59;;;;;;;;;;;;;;;17.76;42.72;100714.75;10330674;28;810;-69
2024/01/30 03:53:55;;;;;;;;;;;;;;;17.75;42.73;100708.63;10330458;28;838;-69
2024/01/30 03:58:50;;;;;;;;;;;;;;;17.75;42.73;100707.78;10330587;28;1952;-70
2024/01/30 04:03:46;;;;;;;;;;;;;;;17.74;42.55;100701.63;10330678;28;822;-69
2024/01/30 04:08:42;;;;;;;;;;;;;;;17.74;42.69;100706.06;10329918;28;802;-70
2024/01/30 04:13:38;;;;;;;;;;;;;;;17.73;42.79;100701.66;10329732;28;798;-69
2024/01/30 04:18:34;;;;;;;;;;;;;;;17.73;42.81;100699.03;10330169;28;845;-70
2024/01/30 04:23:30;;;;;;;;;;;;;;;17.72;42.61;100690.25;10329235;28;1897;-70
2024/01/30 04:28:26;;;;;;;;;;;;;;;17.72;42.69;100699.94;10330097;28;1281;-69
2024/01/30 04:33:22;;;;;;;;;;;;;;;17.72;42.64;100698.16;10328959;28;810;-70
2024/01/30 04:38:18;;;;;;;;;;;;;;;17.71;42.80;100696.47;10328707;28;789;-69
2024/01/30 04:43:14;;;;;;;;;;;;;;;17.69;42.64;100698.25;10328384;28;1917;-70
2024/01/30 04:48:10;;;;;;;;;;;;;;;17.71;42.82;100696.47;10328904;28;818;-70
2024/01/30 04:53:06;;;;;;;;;;;;;;;17.72;42.87;100690.25;10327522;28;853;-70
2024/01/30 04:58:03;;;;;;;;;;;;;;;17.73;42.67;100689.34;10327914;28;766;-70
2024/01/30 05:02:59;;;;;;;;;;;;;;;17.73;42.79;100685.84;10327642;28;1897;-70
2024/01/30 05:07:55;;;;;;;;;;;;;;;17.75;42.54;100684.91;10326805;28;810;-70
2024/01/30 05:12:51;;;;;;;;;;;;;;;17.74;42.75;100675.25;10327899;28;843;-69
2024/01/30 05:17:47;;;;;;;;;;;;;;;17.78;42.66;100683.09;10327128;28;926;-70
2024/01/30 05:22:44;;;;;;;;;;;;;;;17.78;42.58;100673.41;10327551;28;1957;-70
2024/01/30 05:27:40;;;;;;;;;;;;;;;17.80;42.86;100678.66;10326195;28;1364;-69
2024/01/30 05:32:36;;;;;;;;;;;;;;;17.81;42.63;100672.47;10326558;28;798;-69
2024/01/30 05:37:32;;;;;;;;;;;;;;;17.82;42.72;100679.50;10327603;28;850;-70
2024/01/30 05:42:28;;;;;;;;;;;;;;;17.83;42.75;100681.22;10326768;28;1906;-69
2024/01/30 05:47:24;;;;;;;;;;;;;;;17.83;42.58;100679.44;10326138;28;891;-69
2024/01/30 05:52:20;;;;;;;;;;;;;;;17.85;42.66;100676.78;10325966;28;787;-70
2024/01/30 05:57:16;;;;;;;;;;;;;;;17.86;42.75;100678.50;10325234;28;838;-69
2024/01/30 06:02:11;;;;;;;;;;;;;;;17.86;42.49;100679.34;10326196;28;1894;-70
2024/01/30 06:07:07;;;;;;;;;;;;;;;17.86;42.69;100676.72;10325639;28;863;-70
2024/01/30 06:12:05;;;;;;;;;;;;;;;17.88;42.69;100676.69;10325945;28;834;-73
2024/01/30 06:17:01;;;;;;;;;;;;;;;17.91;42.72;100671.31;10326490;28;869;-70
2024/01/30 06:21:56;;;;;;;;;;;;;;;17.91;42.53;100672.16;10325214;28;1949;-70
2024/01/30 06:26:52;;;;;;;;;;;;;;;17.91;42.80;100681.84;10325270;28;1312;-71
2024/01/30 06:31:48;;;;;;;;;;;;;;;17.94;42.65;100681.75;10325207;28;922;-73
2024/01/30 06:36:44;;;;;;;;;;;;;;;17.95;42.58;100678.25;10324981;28;879;-70
2024/01/30 06:41:40;;;;;;;;;;;;;;;17.96;42.73;100678.16;10324893;28;1922;-70
2024/01/30 06:46:37;;;;;;;;;;;;;;;17.97;42.49;100679.03;10324819;28;863;-71
2024/01/30 06:51:32;;;;;;;;;;;;;;;17.98;42.81;100677.28;10325422;28;882;-70
2024/01/30 06:56:28;;;;;;;;;;;;;;;17.98;42.66;100675.50;10324635;28;822;-71
2024/01/30 07:01:24;;;;;;;;;;;;;;;17.98;42.66;100680.78;10323876;28;1905;-71
2024/01/30 07:06:20;;;;;;;;;;;;;;;17.98;42.75;100672.88;10324454;28;909;-71
2024/01/30 07:11:16;;;;;;;;;;;;;;;17.98;42.66;100680.78;10324407;28;920;-70
2024/01/30 07:16:12;;;;;;;;;;;;;;;17.97;42.83;100676.41;10324890;28;889;-70
2024/01/30 07:21:08;;;;;;;;;;;;;;;17.95;42.84;100679.09;10324768;28;2220;-70
2024/01/30 07:26:03;;;;;;;;;;;;;;;17.94;42.83;100679.13;10324791;28;1120;-71
2024/01/30 07:30:59;;;;;;;;;;;;;;;17.92;42.86;100678.28;10324954;28;858;-68
2024/01/30 07:35:55;;;;;;;;;;;;;;;17.88;42.96;100669.63;10331787;28;810;-69
2024/01/30 07:40:51;;;;;;;;;;;;;;;17.88;42.87;100669.63;10330891;28;1910;-70
2024/01/30 07:45:47;;;;;;;;;;;;;;;17.90;42.65;100661.69;10330811;28;909;-70
2024/01/30 07:50:43;;;;;;;;;;;;;;;17.93;42.83;100682.69;10312757;28;759;-70
2024/01/30 07:55:39;;;;;;;;;;;;;;;17.93;42.78;100685.31;10330465;28;770;-70
2024/01/30 08:00:35;;;;;;;;;;;;;;;17.92;42.70;100702.03;10330209;28;1890;-70
2024/01/30 08:05:30;;;;;;;;;;;;;;;17.93;42.91;100696.72;10330095;28;802;-70
2024/01/30 08:10:26;;;;;;;;;;;;;;;17.93;42.71;100701.16;10329352;28;975;-70
2024/01/30 08:15:22;;;;;;;;;;;;;;;17.95;42.70;100707.25;10330344;28;929;-71
2024/01/30 08:20:18;;;;;;;;;;;;;;;17.94;42.74;100708.13;10329469;28;1898;-69
2024/01/30 08:25:14;;;;;;;;;;;;;;;17.98;42.81;100703.66;10329211;28;1156;-68
2024/01/30 08:30:10;;;;;;;;;;;;;;;17.98;42.76;100703.66;10329104;28;892;-72
2024/01/30 08:35:06;;;;;;;;;;;;;;;17.98;42.74;100712.44;10328931;28;869;-73
2024/01/30 08:40:04;;;;;;;;;;;;;;;18.00;42.92;100704.47;10329225;28;1961;-71
2024/01/30 08:45:00;;;;;;;;;;;;;;;18.00;42.75;100700.06;10327284;28;1049;-73
2024/01/30 08:49:56;;;;;;;;;;;;;;;18.02;42.77;100702.66;10329143;28;870;-73
2024/01/30 08:54:52;;;;;;;;;;;;;;;18.02;42.90;100706.16;10328337;28;869;-73
2024/01/30 08:59:48;;;;;;;;;;;;;;;18.01;42.67;100687.75;10328436;28;1960;-71
2024/01/30 09:04:44;;;;;;;;;;;;;;;18.01;42.86;100696.50;10327627;28;982;-69
2024/01/30 09:09:42;;;;;;;;;;;;;;;18.04;42.79;100692.91;10327503;28;943;-70
2024/01/30 09:14:38;;;;;;;;;;;;;;;18.06;43.13;100701.66;10327266;28;969;-75
2024/01/30 09:19:34;;;;;;;;;;;;;;;18.06;43.00;100702.53;10327123;28;1949;-71
2024/01/30 09:24:30;;;;;;;;;;;;;;;18.06;43.32;100702.53;10326446;28;1059;-72
2024/01/30 09:29:26;;;;;;;;;;;;;;;18.07;43.32;100725.34;10327956;28;1204;-71
2024/01/30 09:34:22;;;;;;;;;;;;;;;18.08;43.44;100728.88;10326499;28;871;-71
2024/01/30 09:39:19;;;;;;;;;;;;;;;18.09;43.59;100739.38;10326333;28;1910;-72
2024/01/30 09:44:15;;;;;;;;;;;;;;;18.10;43.72;100749.03;10326155;28;919;-71
2024/01/30 09:49:11;;;;;;;;;;;;;;;18.11;43.96;100747.25;10326126;28;850;-72
2024/01/30 09:54:07;;;;;;;;;;;;;;;18.11;43.95;100756.03;10326245;28;928;-72
2024/01/30 09:59:03;;;;;;;;;;;;;;;18.12;43.97;100763.00;10325781;28;1945;-73
2024/01/30 10:03:59;;;;;;;;;;;;;;;18.13;44.02;100755.97;10325745;28;855;-77
2024/01/30 10:08:55;;;;;;;;;;;;;;;18.13;43.88;100756.84;10325679;28;774;-73
2024/01/30 10:13:51;;;;;;;;;;;;;;;18.15;44.02;100756.78;10325532;28;782;-71
2024/01/30 10:18:47;;;;;;;;;;;;;;;18.16;43.83;100756.75;10325441;28;764;-70
2024/01/30 10:23:43;;;;;;;;;;;;;;;18.15;44.14;100736.53;10325548;28;1906;-70
2024/01/30 10:28:39;;;;;;;;;;;;;;;18.16;44.13;100734.78;10325110;28;1332;-70
2024/01/30 10:33:35;;;;;;;;;;;;;;;18.16;44.12;100740.94;10325761;28;965;-70
2024/01/30 10:38:30;;;;;;;;;;;;;;;18.17;44.08;100733.88;10325310;28;946;-70
2024/01/30 10:43:26;;;;;;;;;;;;;;;18.17;44.08;100728.59;10324867;28;1972;-70
2024/01/30 10:48:22;;;;;;;;;;;;;;;18.19;44.10;100729.41;10325403;28;889;-70
2024/01/30 10:53:18;;;;;;;;;;;;;;;18.19;44.07;100732.06;10325311;28;772;-70
2024/01/30 10:58:14;;;;;;;;;;;;;;;18.20;43.99;100732.91;10324639;28;778;-71
2024/01/30 11:03:10;;;;;;;;;;;;;;;18.21;43.97;100727.59;10325040;28;1906;-70
2024/01/30 11:08:06;;;;;;;;;;;;;;;18.20;43.84;100725.84;10329434;28;944;-74
2024/01/30 11:13:02;;;;;;;;;;;;;;;18.20;43.96;100719.72;10332722;28;791;-70
2024/01/30 11:17:58;;;;;;;;;;;;;;;18.21;43.86;100737.28;10332115;28;984;-71
2024/01/30 11:22:54;;;;;;;;;;;;;;;18.22;43.93;100736.38;10332211;28;1975;-73
2024/01/30 11:27:50;;;;;;;;;;;;;;;18.22;43.82;100736.38;10331797;28;1162;-71
2024/01/30 11:32:45;;;;;;;;;;;;;;;18.23;43.61;100724.91;10331967;28;930;-70
2024/01/30 11:37:42;;;;;;;;;;;;;;;18.22;43.62;100737.25;10331122;28;1030;-71
2024/01/30 11:42:39;;;;;;;;;;;;;;;18.24;43.76;100739.84;10330968;28;1906;-70
2024/01/30 11:47:35;;;;;;;;;;;;;;;18.25;43.86;100742.41;10330782;28;957;-70
2024/01/30 11:52:31;;;;;;;;;;;;;;;18.26;43.62;100741.53;10330769;28;898;-72
2024/01/30 11:57:27;;;;;;;;;;;;;;;18.26;43.87;100730.09;10329862;28;1607;-69
2024/01/30 12:02:23;;;;;;;;;;;;;;;18.28;43.55;100726.50;10330381;28;1894;-68
2024/01/30 12:07:19;;;;;;;;;;;;;;;18.29;43.47;100730.03;10330120;28;976;-68
2024/01/30 12:12:14;;;;;;;;;;;;;;;18.28;43.72;100737.03;10329937;28;766;-68
2024/01/30 12:17:10;;;;;;;;;;;;;;;18.27;43.65;100735.31;10330086;28;865;-69
2024/01/30 12:22:07;;;;;;;;;;;;;;;18.29;43.65;100748.50;10329986;28;1898;-68
2024/01/30 12:27:03;;;;;;;;;;;;;;;18.32;43.63;100746.63;10329674;28;1148;-68
2024/01/30 12:31:59;;;;;;;;;;;;;;;18.33;43.65;100752.75;10329160;28;914;-69
2024/01/30 12:36:55;;;;;;;;;;;;;;;18.32;43.63;100761.59;10329899;28;874;-69
2024/01/30 12:41:50;;;;;;;;;;;;;;;18.31;43.76;100754.56;10328682;28;1914;-68
2024/01/30 12:46:46;;;;;;;;;;;;;;;18.29;43.63;100764.31;10327896;28;838;-68
2024/01/30 12:51:42;;;;;;;;;;;;;;;18.27;43.81;100763.50;10328904;28;857;-68
2024/01/30 12:56:38;;;;;;;;;;;;;;;18.25;43.74;100762.69;10328710;28;806;-66
2024/01/30 13:01:34;;;;;;;;;;;;;;;18.23;43.89;100769.75;10327846;28;1886;-68
2024/01/30 13:06:30;;;;;;;;;;;;;;;18.25;43.87;100765.31;10327706;28;868;-68
2024/01/30 13:11:26;;;;;;;;;;;;;;;18.23;43.78;100775.03;10328085;28;867;-68
2024/01/30 13:16:21;;;;;;;;;;;;;;;18.22;43.85;100760.13;10327426;28;982;-68
2024/01/30 13:21:17;;;;;;;;;;;;;;;18.24;43.87;100763.59;10327638;28;1947;-67
2024/01/30 13:26:13;;;;;;;;;;;;;;;18.22;43.62;100761.00;10327315;28;1442;-67
2024/01/30 13:31:09;;;;;;;;;;;;;;;18.21;43.84;100768.94;10326984;28;878;-68
2024/01/30 13:36:05;;;;;;;;;;;;;;;18.20;43.84;100772.50;10326620;28;766;-68
2024/01/30 13:41:01;;;;;;;;;;;;;;;18.20;43.70;100773.34;10326891;28;1906;-67
2024/01/30 13:45:57;;;;;;;;;;;;;;;18.20;43.58;100770.72;10326914;28;765;-67
2024/01/30 13:50:53;;;;;;;;;;;;;;;18.20;43.67;100783.06;10326144;28;942;-68
2024/01/30 13:55:48;;;;;;;;;;;;;;;18.18;43.71;100785.72;10325904;28;887;-68
2024/01/30 14:00:44;;;;;;;;;;;;;;;18.20;43.58;100793.59;10325760;28;1890;-68
2024/01/30 14:05:40;;;;;;;;;;;;;;;18.17;43.58;100790.13;10326120;28;819;-68
2024/01/30 14:10:36;;;;;;;;;;;;;;;18.17;43.59;100792.78;10325315;28;841;-68
2024/01/30 14:15:32;;;;;;;;;;;;;;;18.16;43.67;100791.06;10325972;28;810;-68
2024/01/30 14:20:28;;;;;;;;;;;;;;;18.15;43.72;100791.94;10326189;28;1964;-68
2024/01/30 14:25:24;;;;;;;;;;;;;;;18.14;43.84;100797.28;10324619;28;1364;-68
2024/01/30 14:30:19;;;;;;;;;;;;;;;18.16;43.51;100798.13;10326070;28;807;-68
2024/01/30 14:35:15;;;;;;;;;;;;;;;18.16;43.68;100801.63;10324312;28;860;-68
2024/01/30 14:40:11;;;;;;;;;;;;;;;18.14;43.76;100797.28;10326804;28;1930;-68
2024/01/30 14:45:07;;;;;;;;;;;;;;;18.13;43.69;100801.72;10332975;28;985;-68
2024/01/30 14:50:04;;;;;;;;;;;;;;;18.15;43.80;100799.00;10332803;28;859;-68
2024/01/30 14:55:00;;;;;;;;;;;;;;;18.12;43.67;100799.09;10333182;28;880;-68
2024/01/30 14:59:55;;;;;;;;;;;;;;;18.09;43.59;100801.81;10332573;28;1965;-68
2024/01/30 15:04:52;;;;;;;;;;;;;;;18.11;43.74;100814.06;10332775;28;837;-68
2024/01/30 15:09:47;;;;;;;;;;;;;;;18.09;43.68;100817.66;10333354;28;1018;-73
2024/01/30 15:14:50;;;;;;;;;;;;;;;18.13;43.83;100808.72;10331357;28;909;-73
2024/01/30 15:19:46;;;;;;;;;;;;;;;18.13;44.07;100814.00;10332466;28;1977;-74
2024/01/30 15:24:42;;;;;;;;;;;;;;;18.10;44.18;100828.19;10330890;28;960;-72
2024/01/30 15:29:37;;;;;;;;;;;;;;;18.12;44.35;100822.84;10331216;28;1526;-72
2024/01/30 15:34:33;;;;;;;;;;;;;;;18.10;44.24;100828.19;10331790;28;905;-72
2024/01/30 15:39:29;;;;;;;;;;;;;;;18.12;44.14;100839.53;10331484;28;1898;-73
2024/01/30 15:44:25;;;;;;;;;;;;;;;18.12;44.28;100842.16;10330840;28;1055;-74
2024/01/30 15:49:21;;;;;;;;;;;;;;;18.14;44.29;100850.06;10331117;28;828;-72
2024/01/30 15:54:18;;;;;;;;;;;;;;;18.11;44.44;100851.00;10330356;28;830;-75
2024/01/30 15:59:14;;;;;;;;;;;;;;;18.13;44.39;100856.22;10330027;28;1882;-78
2024/01/30 16:04:10;;;;;;;;;;;;;;;18.12;44.32;100859.78;10330613;28;917;-75
2024/01/30 16:09:05;;;;;;;;;;;;;;;18.13;44.42;100870.31;10330417;28;822;-76
2024/01/30 16:14:01;;;;;;;;;;;;;;;18.15;44.46;100867.59;10329125;28;914;-74
2024/01/30 16:18:57;;;;;;;;;;;;;;;18.15;44.47;100864.97;10330034;28;838;-74
2024/01/30 16:23:53;;;;;;;;;;;;;;;18.14;44.48;100874.66;10329778;28;1882;-74
2024/01/30 16:28:49;;;;;;;;;;;;;;;18.16;44.41;100874.63;10328483;28;1268;-75
2024/01/30 16:33:45;;;;;;;;;;;;;;;18.16;44.55;100888.69;10329390;28;783;-75
2024/01/30 16:38:41;;;;;;;;;;;;;;;18.15;44.37;100886.94;10329406;28;864;-77
2024/01/30 16:43:37;;;;;;;;;;;;;;;18.20;44.25;100900.03;10328353;28;1922;-74
2024/01/30 16:48:33;;;;;;;;;;;;;;;18.13;44.38;100898.44;10328221;28;771;-74
2024/01/30 16:53:30;;;;;;;;;;;;;;;18.12;44.39;100920.47;10327395;28;910;-75
2024/01/30 16:58:25;;;;;;;;;;;;;;;18.10;44.34;100927.56;10327656;28;842;-74
2024/01/30 17:03:21;;;;;;;;;;;;;;;18.08;44.53;100932.88;10326618;28;1905;-75
2024/01/30 17:08:17;;;;;;;;;;;;;;;18.07;44.18;100949.59;10326834;28;926;-73
2024/01/30 17:13:13;;;;;;;;;;;;;;;18.08;44.28;100961.91;10327305;28;842;-75
2024/01/30 17:18:09;;;;;;;;;;;;;;;18.11;44.24;100968.88;10327172;28;795;-77
2024/01/30 17:23:07;;;;;;;;;;;;;;;18.10;44.46;100964.50;10326841;28;1906;-72
2024/01/30 17:28:03;;;;;;;;;;;;;;;18.11;44.31;100980.31;10327151;28;1169;-70
2024/01/30 17:32:59;;;;;;;;;;;;;;;18.12;44.53;100997.84;10327110;28;881;-71
2024/01/30 17:37:55;;;;;;;;;;;;;;;18.11;44.46;101003.19;10326960;28;855;-71
2024/01/30 17:42:51;;;;;;;;;;;;;;;18.13;44.39;101004.88;10326077;28;1982;-71
2024/01/30 17:47:47;;;;;;;;;;;;;;;18.14;44.44;101030.34;10326621;28;861;-71
2024/01/30 17:52:42;;;;;;;;;;;;;;;18.14;44.44;101027.72;10326470;28;842;-71
2024/01/30 17:57:38;;;;;;;;;;;;;;;18.16;44.32;101036.47;10326024;28;937;-71
2024/01/30 18:02:34;;;;;;;;;;;;;;;18.17;44.15;101039.97;10326106;28;1898;-71
2024/01/30 18:07:30;;;;;;;;;;;;;;;18.16;44.34;101048.81;10326104;28;846;-70
2024/01/30 18:12:26;;;;;;;;;;;;;;;18.18;44.31;101063.69;10325493;28;897;-71
2024/01/30 18:17:22;;;;;;;;;;;;;;;18.19;44.26;101056.63;10325578;28;944;-71
2024/01/30 18:22:18;;;;;;;;;;;;;;;18.21;44.37;101067.13;10325384;28;1968;-70
2024/01/30 18:27:14;;;;;;;;;;;;;;;18.20;44.44;101060.13;10325422;28;1120;-70
2024/01/30 18:32:10;;;;;;;;;;;;;;;18.23;44.54;101067.97;10325136;28;804;-71
2024/01/30 18:37:07;;;;;;;;;;;;;;;18.24;44.22;101064.44;10325630;28;853;-71
2024/01/30 18:42:03;;;;;;;;;;;;;;;18.23;44.51;101070.63;10325487;28;1976;-71
2024/01/30 18:46:59;;;;;;;;;;;;;;;18.26;44.41;101083.72;10325426;28;882;-71
2024/01/30 18:51:56;;;;;;;;;;;;;;;18.26;44.27;101089.00;10325130;28;786;-71
2024/01/30 18:56:52;;;;;;;;;;;;;;;18.26;44.16;101089.00;10324548;28;818;-71
2024/01/30 19:01:47;;;;;;;;;;;;;;;18.28;44.21;101084.56;10323786;28;1902;-70
2024/01/30 19:06:43;;;;;;;;;;;;;;;18.29;44.57;101088.97;10323773;28;834;-70
2024/01/30 19:11:39;;;;;;;;;;;;;;;18.28;44.40;101100.41;10324253;28;921;-70
2024/01/30 19:16:35;;;;;;;;;;;;;;;18.30;44.43;101114.44;10324123;28;790;-70
2024/01/30 19:21:31;;;;;;;;;;;;;;;18.31;44.19;101118.81;10323929;28;1894;-70
2024/01/30 19:26:27;;;;;;;;;;;;;;;18.30;44.42;101114.44;10307275;28;1395;-70
2024/01/30 19:31:23;;;;;;;;;;;;;;;18.31;44.31;101119.69;10331322;28;886;-71
2024/01/30 19:36:19;;;;;;;;;;;;;;;18.32;44.20;101136.41;10331119;28;830;-70
2024/01/30 19:41:15;;;;;;;;;;;;;;;18.33;43.99;101130.19;10330831;28;1914;-70
2024/01/30 19:46:10;;;;;;;;;;;;;;;18.33;44.14;101132.84;10330694;28;977;-70
2024/01/30 19:51:06;;;;;;;;;;;;;;;18.34;44.09;101137.25;10330584;28;902;-70
2024/01/30 19:56:04;;;;;;;;;;;;;;;18.34;44.13;101151.28;10330404;28;787;-70
2024/01/30 20:01:00;;;;;;;;;;;;;;;18.35;44.11;101146.88;10330070;28;1951;-71
2024/01/30 20:05:56;;;;;;;;;;;;;;;18.36;44.08;101144.19;10330115;28;921;-71
2024/01/30 20:10:52;;;;;;;;;;;;;;;18.37;44.17;101160.91;10329759;28;981;-70
2024/01/30 20:15:49;;;;;;;;;;;;;;;18.35;44.06;101162.72;10329857;28;946;-70
2024/01/30 20:20:45;;;;;;;;;;;;;;;18.36;43.97;101159.16;10329917;28;1886;-70
2024/01/30 20:25:41;;;;;;;;;;;;;;;18.36;44.17;101169.72;10329262;28;1339;-70
2024/01/30 20:30:37;;;;;;;;;;;;;;;18.36;44.07;101164.44;10328495;28;1358;-70
2024/01/30 20:35:33;;;;;;;;;;;;;;;18.36;44.16;101167.94;10329498;28;798;-70
2024/01/30 20:40:29;;;;;;;;;;;;;;;18.36;43.98;101178.50;10328959;28;1902;-70
2024/01/30 20:45:25;;;;;;;;;;;;;;;18.35;43.97;101189.13;10329024;28;841;-69
2024/01/30 20:50:21;;;;;;;;;;;;;;;18.34;44.09;101198.81;10328264;28;787;-70
2024/01/30 20:55:16;;;;;;;;;;;;;;;18.33;44.05;101206.75;10328076;28;756;-70
2024/01/30 21:00:13;;;;;;;;;;;;;;;18.32;44.08;101205.88;10327847;28;1960;-70
2024/01/30 21:05:09;;;;;;;;;;;;;;;18.31;44.06;101205.91;10328228;28;847;-70
2024/01/30 21:10:05;;;;;;;;;;;;;;;18.33;44.07;101207.63;10326908;28;873;-70
2024/01/30 21:15:00;;;;;;;;;;;;;;;18.31;44.00;101213.81;10326824;28;859;-70
2024/01/30 21:19:57;;;;;;;;;;;;;;;18.30;43.92;101218.25;10326927;28;1898;-70
2024/01/30 21:24:53;;;;;;;;;;;;;;;18.29;43.96;101221.81;10326881;28;1025;-70
2024/01/30 21:29:49;;;;;;;;;;;;;;;18.29;43.89;101223.56;10327017;28;830;-70
2024/01/30 21:34:45;;;;;;;;;;;;;;;18.27;43.87;101220.97;10327079;28;807;-70
2024/01/30 21:39:41;;;;;;;;;;;;;;;18.26;44.07;101224.50;10325603;28;2024;-70
2024/01/30 21:44:37;;;;;;;;;;;;;;;18.28;43.96;101216.53;10326121;28;859;-70
2024/01/30 21:49:32;;;;;;;;;;;;;;;18.26;43.94;101220.97;10326139;28;885;-70
2024/01/30 21:54:28;;;;;;;;;;;;;;;18.25;43.67;101227.16;10326494;28;814;-70
2024/01/30 21:59:24;;;;;;;;;;;;;;;18.24;43.98;101228.09;10325591;28;969;-71
2024/01/30 22:04:23;;;;;;;;;;;;;;;18.22;43.79;101219.31;10324909;28;1894;-71
2024/01/30 22:09:19;;;;;;;;;;;;;;;18.20;43.69;101216.69;10325376;28;883;-70
2024/01/30 22:14:15;;;;;;;;;;;;;;;18.18;43.94;101219.41;10326088;28;808;-69
2024/01/30 22:19:13;;;;;;;;;;;;;;;18.17;43.88;101230.84;10325814;28;1536;-70
2024/01/30 22:24:09;;;;;;;;;;;;;;;18.16;43.98;101234.38;10325237;28;1953;-70
2024/01/30 22:29:04;;;;;;;;;;;;;;;18.14;43.62;101225.63;10326063;28;1314;-69
2024/01/30 22:34:00;;;;;;;;;;;;;;;18.14;43.87;101233.53;10324643;28;842;-69
2024/01/30 22:38:57;;;;;;;;;;;;;;;18.12;43.64;101242.41;10325981;28;827;-69
2024/01/30 22:43:53;;;;;;;;;;;;;;;18.10;43.78;101260.03;10324947;28;1969;-69
2024/01/30 22:48:49;;;;;;;;;;;;;;;18.07;43.85;101253.03;10325474;28;957;-69
2024/01/30 22:53:45;;;;;;;;;;;;;;;18.07;43.73;101265.38;10324891;28;937;-69
2024/01/30 22:58:41;;;;;;;;;;;;;;;18.05;43.88;101270.69;10324679;28;827;-70
2024/01/30 23:03:37;;;;;;;;;;;;;;;18.05;43.68;101281.25;10329600;28;1894;-69
2024/01/30 23:08:32;;;;;;;;;;;;;;;18.02;43.90;101270.72;10333029;28;784;-70
2024/01/30 23:13:28;;;;;;;;;;;;;;;18.01;43.93;101279.56;10332512;28;802;-70
2024/01/30 23:18:24;;;;;;;;;;;;;;;18.00;43.89;101285.75;10332779;28;865;-70
2024/01/30 23:23:20;;;;;;;;;;;;;;;17.99;43.83;101299.81;10331788;28;1918;-69
2024/01/30 23:28:16;;;;;;;;;;;;;;;17.98;43.76;101302.50;10332619;28;1113;-69
2024/01/30 23:33:12;;;;;;;;;;;;;;;17.96;43.78;101300.75;10332040;28;798;-69
2024/01/30 23:38:08;;;;;;;;;;;;;;;17.96;43.90;101302.53;10331958;28;845;-69
2024/01/30 23:43:04;;;;;;;;;;;;;;;17.95;43.62;101303.44;10331725;28;1910;-69
2024/01/30 23:47:59;;;;;;;;;;;;;;;17.93;43.85;101305.22;10331041;28;917;-69
2024/01/30 23:52:55;;;;;;;;;;;;;;;17.93;44.01;101303.44;10330993;28;1040;-70
2024/01/30 23:57:51;;;;;;;;;;;;;;;17.92;43.76;101299.09;10331297;28;806;-69
